Time;durP1;ratioP1;P1;durP2;ratioP2;P2;SDS_P1;SDS_P2;PMS_P1;PMS_P2;Temp;Humidity;BMP_temperature;BMP_pressure;BME280_temperature;BME280_humidity;BME280_pressure;Samples;Min_cycle;Max_cycle;Signal;HPM_P1;HPM_P2
2022/04/29 00:00:49;;;;;;;7.00;5.30;;;11.20;99.90;;;;;;5078798;28;20509;-87
2022/04/29 00:03:16;;;;;;;7.57;6.17;;;11.40;99.90;;;;;;5079136;28;20452;-87
2022/04/29 00:05:44;;;;;;;10.07;6.50;;;11.40;99.90;;;;;;5078291;28;20443;-87
2022/04/29 00:08:12;;;;;;;8.20;6.57;;;11.20;99.90;;;;;;5079809;28;20456;-86
2022/04/29 00:10:40;;;;;;;11.90;6.70;;;11.20;99.90;;;;;;5084156;28;20507;-88
2022/04/29 00:13:09;;;;;;;7.23;6.07;;;11.20;99.90;;;;;;5087830;28;20491;-88
2022/04/29 00:15:36;;;;;;;8.63;6.23;;;11.20;99.90;;;;;;5086985;28;20444;-88
2022/04/29 00:18:05;;;;;;;7.80;5.90;;;11.10;99.90;;;;;;5089676;28;20466;-84
2022/04/29 00:20:32;;;;;;;8.70;5.87;;;11.00;99.90;;;;;;5096375;28;20475;-87
2022/04/29 00:22:59;;;;;;;8.50;6.60;;;11.00;99.90;;;;;;5087073;28;20444;-88
2022/04/29 00:25:27;;;;;;;7.03;6.00;;;10.90;99.90;;;;;;5082569;28;20466;-87
2022/04/29 00:27:54;;;;;;;9.57;6.70;;;10.90;99.90;;;;;;5082413;28;20699;-87
2022/04/29 00:30:20;;;;;;;9.80;6.33;;;10.80;99.90;;;;;;5082430;28;20426;-87
2022/04/29 00:32:47;;;;;;;9.53;6.30;;;10.70;99.90;;;;;;5082079;28;20483;-88
2022/04/29 00:35:16;;;;;;;9.20;6.60;;;10.70;99.90;;;;;;5083817;28;20459;-89
2022/04/29 00:37:45;;;;;;;7.33;6.03;;;10.70;99.90;;;;;;5085082;28;20471;-88
2022/04/29 00:40:16;;;;;;;9.83;7.03;;;10.60;99.90;;;;;;5089544;28;20451;-87
2022/04/29 00:42:43;;;;;;;9.30;6.87;;;10.60;99.90;;;;;;5095492;28;20420;-87
2022/04/29 00:45:10;;;;;;;7.83;5.70;;;10.50;99.90;;;;;;5084439;28;20444;-87
2022/04/29 00:47:37;;;;;;;7.60;6.50;;;10.50;99.90;;;;;;5083277;28;20483;-89
2022/04/29 00:50:05;;;;;;;8.70;6.77;;;10.50;99.90;;;;;;5087889;28;20574;-87
2022/04/29 00:52:37;;;;;;;9.80;6.90;;;10.50;99.90;;;;;;5081473;28;20424;-85
2022/04/29 00:55:08;;;;;;;8.30;6.80;;;10.40;99.90;;;;;;5078911;28;20497;-87
2022/04/29 00:57:42;;;;;;;8.53;6.30;;;10.40;99.90;;;;;;5080491;28;20523;-86
2022/04/29 01:00:11;;;;;;;10.17;6.60;;;10.40;99.90;;;;;;5085246;28;20402;-88
2022/04/29 01:02:41;;;;;;;8.00;6.30;;;10.40;99.90;;;;;;5093390;28;20432;-88
2022/04/29 01:05:11;;;;;;;8.70;6.93;;;10.30;99.90;;;;;;5085322;28;20586;-87
2022/04/29 01:07:41;;;;;;;9.13;7.53;;;10.30;99.90;;;;;;5081911;28;20575;-88
2022/04/29 01:10:10;;;;;;;8.50;7.23;;;10.20;99.90;;;;;;5081464;28;20451;-87
2022/04/29 01:12:38;;;;;;;7.70;6.87;;;10.30;99.90;;;;;;5082345;28;20439;-87
2022/04/29 01:15:07;;;;;;;12.23;6.93;;;10.30;99.90;;;;;;5080821;28;20519;-87
2022/04/29 01:17:36;;;;;;;10.10;6.50;;;10.30;99.90;;;;;;5083235;28;20443;-88
2022/04/29 01:20:05;;;;;;;8.87;7.03;;;10.30;99.90;;;;;;5085029;28;20447;-88
2022/04/29 01:22:33;;;;;;;8.50;6.67;;;10.30;99.90;;;;;;5085048;28;20460;-89
2022/04/29 01:25:00;;;;;;;11.50;6.70;;;10.30;99.90;;;;;;5087591;28;20436;-87
2022/04/29 01:27:27;;;;;;;9.37;6.97;;;10.40;99.90;;;;;;5089572;28;20498;-87
2022/04/29 01:30:01;;;;;;;10.00;7.00;;;10.30;99.90;;;;;;5083447;28;20466;-88
2022/04/29 01:32:28;;;;;;;10.90;6.57;;;10.40;99.90;;;;;;5084109;28;20448;-87
2022/04/29 01:34:55;;;;;;;7.63;6.63;;;10.40;99.90;;;;;;5084940;28;20454;-87
2022/04/29 01:37:21;;;;;;;10.37;6.97;;;10.20;99.90;;;;;;5085389;28;20526;-87
2022/04/29 01:39:50;;;;;;;9.53;7.10;;;10.20;99.90;;;;;;5084670;28;20458;-86
2022/04/29 01:42:16;;;;;;;10.60;7.30;;;10.10;99.90;;;;;;5084057;28;20849;-88
2022/04/29 01:44:45;;;;;;;9.37;7.10;;;10.10;99.90;;;;;;5083773;28;20447;-88
2022/04/29 01:47:12;;;;;;;8.27;7.20;;;10.10;99.90;;;;;;5082767;28;20827;-87
2022/04/29 01:49:39;;;;;;;9.77;7.37;;;10.10;99.90;;;;;;5082327;28;20452;-87
2022/04/29 01:52:08;;;;;;;8.20;6.83;;;10.00;99.90;;;;;;5083409;28;20535;-87
2022/04/29 01:54:35;;;;;;;11.80;7.20;;;10.00;99.90;;;;;;5083540;28;20451;-88
2022/04/29 01:57:04;;;;;;;7.87;6.43;;;10.00;99.90;;;;;;5083978;28;20444;-87
2022/04/29 01:59:32;;;;;;;10.20;8.13;;;10.00;99.90;;;;;;5093430;28;20459;-88
2022/04/29 02:01:59;;;;;;;7.90;6.67;;;9.90;99.90;;;;;;5093273;28;20472;-89
2022/04/29 02:04:27;;;;;;;9.17;6.87;;;9.80;99.90;;;;;;5084969;28;20478;-89
2022/04/29 02:06:56;;;;;;;8.60;7.47;;;9.70;99.90;;;;;;5084314;28;20487;-89
2022/04/29 02:09:23;;;;;;;9.20;7.17;;;9.80;99.90;;;;;;5084066;28;20519;-87
2022/04/29 02:14:59;;;;;;;10.53;8.00;;;9.80;99.90;;;;;;5159652;27;21069;-88
2022/04/29 02:17:26;;;;;;;9.80;7.03;;;9.70;99.90;;;;;;5159616;27;20448;-88
2022/04/29 02:19:53;;;;;;;9.50;7.27;;;9.90;99.90;;;;;;5159427;27;20466;-87
2022/04/29 02:22:20;;;;;;;9.60;7.60;;;10.00;99.90;;;;;;5184343;27;20536;-87
2022/04/29 02:24:47;;;;;;;9.43;8.17;;;10.00;99.90;;;;;;5191734;27;20440;-89
2022/04/29 02:27:14;;;;;;;12.20;7.27;;;10.00;99.90;;;;;;5183590;27;20471;-88
2022/04/29 02:29:41;;;;;;;12.37;7.30;;;9.90;99.90;;;;;;5181468;27;20526;-88
2022/04/29 02:32:09;;;;;;;8.67;6.73;;;9.80;99.90;;;;;;5181135;27;20471;-85
2022/04/29 02:34:37;;;;;;;11.07;7.80;;;9.70;99.90;;;;;;5177077;27;20483;-86
2022/04/29 02:37:05;;;;;;;8.80;7.03;;;9.70;99.90;;;;;;5180023;27;20467;-90
2022/04/29 02:39:32;;;;;;;8.97;7.60;;;9.70;99.90;;;;;;5178765;27;20530;-86
2022/04/29 02:41:58;;;;;;;12.97;7.70;;;9.70;99.90;;;;;;5177550;27;20470;-86
2022/04/29 02:44:25;;;;;;;11.13;8.20;;;9.70;99.90;;;;;;5178104;27;20890;-88
2022/04/29 02:47:10;;;;;;;9.30;7.40;;;9.60;99.90;;;;;;5183876;27;20494;-88
2022/04/29 02:49:41;;;;;;;11.67;8.07;;;9.60;99.90;;;;;;5183919;27;20820;-87
2022/04/29 02:52:13;;;;;;;11.30;8.33;;;9.50;99.90;;;;;;5182178;27;20460;-88
2022/04/29 02:54:40;;;;;;;8.70;7.40;;;9.40;99.90;;;;;;5181690;27;20502;-88
2022/04/29 02:57:07;;;;;;;10.90;7.90;;;9.40;99.90;;;;;;5190044;27;20438;-86
2022/04/29 02:59:34;;;;;;;10.80;7.67;;;9.30;99.90;;;;;;5178128;27;20469;-88
2022/04/29 03:02:01;;;;;;;8.67;7.47;;;9.30;99.90;;;;;;5184680;27;20470;-88
2022/04/29 03:04:28;;;;;;;10.53;7.53;;;9.30;99.90;;;;;;5185451;27;20431;-88
2022/04/29 03:06:57;;;;;;;8.93;7.80;;;9.40;99.90;;;;;;5185266;27;20475;-87
2022/04/29 03:09:24;;;;;;;10.10;8.10;;;9.40;99.90;;;;;;5182383;27;20418;-88
2022/04/29 03:11:51;;;;;;;10.80;7.70;;;9.40;99.90;;;;;;5183213;27;20451;-88
2022/04/29 03:14:18;;;;;;;12.43;7.43;;;9.40;99.90;;;;;;5189705;27;20539;-87
2022/04/29 03:16:44;;;;;;;10.10;7.00;;;9.40;99.90;;;;;;5189831;27;20416;-87
2022/04/29 03:19:12;;;;;;;10.40;8.67;;;9.30;99.90;;;;;;5194597;27;20475;-87
2022/04/29 03:21:39;;;;;;;10.70;7.80;;;9.40;99.90;;;;;;5187468;27;21052;-87
2022/04/29 03:24:08;;;;;;;10.07;8.10;;;9.40;99.90;;;;;;5181750;27;20446;-89
2022/04/29 03:26:37;;;;;;;11.03;8.50;;;9.30;99.90;;;;;;5168902;27;20472;-88
2022/04/29 03:29:04;;;;;;;10.80;7.70;;;9.30;99.90;;;;;;5168010;27;20838;-88
2022/04/29 03:31:31;;;;;;;10.10;8.20;;;9.30;99.90;;;;;;5166666;27;20467;-89
2022/04/29 03:33:58;;;;;;;9.50;8.07;;;9.30;99.90;;;;;;5165643;27;21039;-89
2022/04/29 03:36:25;;;;;;;9.67;7.83;;;9.20;99.90;;;;;;5168119;27;20447;-88
2022/04/29 03:38:51;;;;;;;16.20;8.73;;;9.20;99.90;;;;;;5180558;27;20428;-87
2022/04/29 03:41:20;;;;;;;10.10;8.47;;;9.20;99.90;;;;;;5172737;27;20458;-89
2022/04/29 03:43:47;;;;;;;10.83;8.33;;;9.30;99.90;;;;;;5173995;27;20877;-86
2022/04/29 03:46:14;;;;;;;10.60;8.03;;;9.20;99.90;;;;;;5173420;27;20451;-86
2022/04/29 03:51:25;;;;;;;9.83;7.77;;;9.20;99.90;;;;;;5170843;27;20442;-88
2022/04/29 03:53:52;;;;;;;10.63;8.37;;;9.20;99.90;;;;;;5167343;27;20490;-88
2022/04/29 03:56:20;;;;;;;11.53;8.50;;;9.20;99.90;;;;;;5174110;27;20492;-86
2022/04/29 03:58:47;;;;;;;9.50;8.40;;;9.20;99.90;;;;;;5181216;27;20471;-83
2022/04/29 04:01:14;;;;;;;9.03;8.03;;;9.10;99.90;;;;;;5175632;27;20468;-88
2022/04/29 04:03:41;;;;;;;10.07;7.80;;;9.10;99.90;;;;;;5171631;27;20475;-89
2022/04/29 04:08:52;;;;;;;11.07;8.97;;;9.30;99.90;;;;;;5166675;27;20450;-88
2022/04/29 04:11:21;;;;;;;12.10;8.13;;;9.30;99.90;;;;;;5172313;22;20537;-87
2022/04/29 04:13:47;;;;;;;9.97;8.57;;;9.30;99.90;;;;;;5097251;28;20472;-86
2022/04/29 04:16:14;;;;;;;9.60;8.20;;;9.20;99.90;;;;;;5097412;28;20498;-86
2022/04/29 04:18:41;;;;;;;13.10;8.70;;;9.10;99.90;;;;;;5088714;28;20484;-86
2022/04/29 04:21:10;;;;;;;9.70;8.60;;;9.10;99.90;;;;;;5088232;28;20900;-87
2022/04/29 04:23:37;;;;;;;11.38;9.45;;;9.10;99.90;;;;;;5086984;28;20458;-86
2022/04/29 04:26:04;;;;;;;11.70;8.90;;;9.10;99.90;;;;;;5086068;28;20272;-86
2022/04/29 04:28:32;;;;;;;9.40;8.40;;;9.10;99.90;;;;;;5086334;28;20467;-86
2022/04/29 04:30:59;;;;;;;10.17;7.83;;;9.20;99.90;;;;;;5088086;28;20479;-87
2022/04/29 04:33:27;;;;;;;13.13;8.97;;;9.20;99.90;;;;;;5088291;28;20482;-86
2022/04/29 04:36:04;;;;;;;11.40;9.95;;;9.30;99.90;;;;;;5096542;28;20423;-88
2022/04/29 04:38:36;;;;;;;12.02;9.18;;;9.30;99.90;;;;;;5098424;28;20201;-87
2022/04/29 04:41:04;;;;;;;9.90;8.70;;;9.30;99.90;;;;;;5094001;28;20194;-87
2022/04/29 04:43:32;;;;;;;9.73;8.60;;;9.30;99.90;;;;;;5083769;28;20467;-87
2022/04/29 04:46:03;;;;;;;12.87;9.07;;;9.20;99.90;;;;;;5083886;28;20479;-86
2022/04/29 04:48:41;;;;;;;10.80;9.70;;;9.20;99.90;;;;;;5084070;28;20444;-87
2022/04/29 04:51:11;;;;;;;10.60;9.03;;;9.20;99.90;;;;;;5085229;28;20510;-87
2022/04/29 04:53:38;;;;;;;11.50;9.20;;;9.20;99.90;;;;;;5083846;28;20526;-86
2022/04/29 04:56:07;;;;;;;14.30;9.23;;;9.30;99.90;;;;;;5087569;28;20463;-88
2022/04/29 04:58:36;;;;;;;9.97;8.47;;;9.30;99.90;;;;;;5089155;28;20507;-86
2022/04/29 05:01:08;;;;;;;9.73;8.00;;;9.30;99.90;;;;;;5093946;28;20444;-87
2022/04/29 05:03:38;;;;;;;10.53;8.93;;;9.30;99.90;;;;;;5088120;28;20508;-86
2022/04/29 05:06:05;;;;;;;10.70;8.70;;;9.50;99.90;;;;;;5089361;28;20408;-88
2022/04/29 05:08:42;;;;;;;12.07;9.53;;;9.50;99.90;;;;;;5089217;28;20436;-88
2022/04/29 05:13:52;;;;;;;11.40;9.10;;;9.50;99.90;;;;;;5090043;28;20540;-87
2022/04/29 05:16:28;;;;;;;15.53;9.40;;;9.50;99.90;;;;;;5086484;28;20455;-87
2022/04/29 05:18:55;;;;;;;11.63;9.00;;;9.50;99.90;;;;;;5083075;28;20442;-87
2022/04/29 05:21:22;;;;;;;12.07;8.93;;;9.60;99.90;;;;;;5083455;28;20530;-87
2022/04/29 05:23:48;;;;;;;10.57;9.40;;;9.60;99.90;;;;;;5083399;28;20479;-87
2022/04/29 05:26:16;;;;;;;18.93;9.30;;;9.60;99.90;;;;;;5083125;28;20471;-87
2022/04/29 05:28:44;;;;;;;11.37;8.87;;;9.70;99.90;;;;;;5083060;28;20530;-87
2022/04/29 05:31:13;;;;;;;12.20;8.70;;;9.70;99.90;;;;;;5083249;28;20471;-87
2022/04/29 05:33:40;;;;;;;11.07;8.97;;;9.90;99.90;;;;;;5086839;28;20874;-87
2022/04/29 05:36:11;;;;;;;11.70;8.67;;;10.00;99.90;;;;;;5087058;28;20458;-86
2022/04/29 05:44:12;;;;;;;11.60;8.60;;;10.20;99.90;;;;;;5096349;28;20437;-87
2022/04/29 05:46:40;;;;;;;11.27;8.83;;;10.30;99.90;;;;;;5088574;28;20467;-87
2022/04/29 05:49:09;;;;;;;9.97;8.60;;;10.30;99.90;;;;;;5082269;28;20444;-88
2022/04/29 05:51:36;;;;;;;10.70;8.67;;;10.20;99.90;;;;;;5083974;28;20462;-87
2022/04/29 05:54:03;;;;;;;14.77;9.97;;;10.40;99.90;;;;;;5083431;28;20585;-87
2022/04/29 05:56:30;;;;;;;10.47;9.13;;;10.50;99.90;;;;;;5084380;28;20494;-87
2022/04/29 05:58:57;;;;;;;12.27;8.93;;;10.50;99.90;;;;;;5083381;28;20447;-87
2022/04/29 06:01:24;;;;;;;12.30;10.67;;;10.50;99.90;;;;;;5080947;28;20498;-86
2022/04/29 06:03:59;;;;;;;12.20;9.27;;;10.50;99.90;;;;;;5079033;28;20455;-87
2022/04/29 06:09:36;;;;;;;;;;;;;;;;;;;;;
2022/04/29 06:12:07;;;;;;;12.73;10.53;;;10.90;99.90;;;;;;5090789;28;20459;-87
2022/04/29 06:14:35;;;;;;;13.30;10.17;;;11.00;99.90;;;;;;5091790;28;20485;-86
2022/04/29 06:17:03;;;;;;;14.20;10.07;;;11.10;99.90;;;;;;5096338;28;20444;-86
2022/04/29 06:19:31;;;;;;;11.03;9.53;;;11.20;99.90;;;;;;5095004;28;20467;-86
2022/04/29 06:21:58;;;;;;;12.90;10.47;;;11.20;99.90;;;;;;5084734;28;20452;-87
2022/04/29 06:24:25;;;;;;;12.43;10.23;;;11.30;99.90;;;;;;5085008;28;20555;-86
2022/04/29 06:26:52;;;;;;;13.47;10.70;;;11.50;99.90;;;;;;5086801;28;20452;-86
2022/04/29 06:29:24;;;;;;;13.30;10.37;;;11.60;99.90;;;;;;5091368;28;20452;-86
2022/04/29 06:31:51;;;;;;;11.90;10.23;;;11.70;99.90;;;;;;5087069;28;20476;-86
2022/04/29 06:34:18;;;;;;;13.90;11.30;;;11.80;99.90;;;;;;5085779;28;20484;-86
2022/04/29 06:36:47;;;;;;;14.90;10.50;;;12.00;99.90;;;;;;5086474;28;20427;-87
2022/04/29 06:39:14;;;;;;;15.87;10.80;;;12.30;99.90;;;;;;5095003;28;20483;-86
2022/04/29 06:41:42;;;;;;;12.57;11.27;;;12.30;99.90;;;;;;5093513;28;20464;-86
2022/04/29 06:44:12;;;;;;;12.70;10.93;;;12.40;99.90;;;;;;5090100;28;20967;-86
2022/04/29 06:46:40;;;;;;;19.40;12.40;;;12.50;99.90;;;;;;5086899;28;20418;-85
2022/04/29 06:49:09;;;;;;;15.00;11.20;;;12.60;99.90;;;;;;5084419;28;20545;-86
2022/04/29 06:51:36;;;;;;;20.90;13.07;;;12.70;99.90;;;;;;5084605;28;20435;-86
2022/04/29 06:54:04;;;;;;;18.43;12.30;;;12.80;99.90;;;;;;5084115;28;20435;-87
2022/04/29 06:56:31;;;;;;;16.10;11.97;;;13.00;99.90;;;;;;5082372;28;20600;-86
2022/04/29 06:58:58;;;;;;;19.93;14.80;;;13.20;99.90;;;;;;5082234;28;20436;-86
2022/04/29 07:01:25;;;;;;;18.77;12.73;;;13.30;99.90;;;;;;5086437;28;20467;-86
2022/04/29 07:03:52;;;;;;;18.83;13.17;;;13.60;99.90;;;;;;5084935;28;20863;-86
2022/04/29 07:06:19;;;;;;;15.40;11.20;;;13.60;99.90;;;;;;5084428;28;20460;-87
2022/04/29 07:08:46;;;;;;;17.83;12.30;;;13.70;99.90;;;;;;5084083;28;20435;-87
2022/04/29 07:11:15;;;;;;;14.43;12.93;;;13.80;99.90;;;;;;5084726;28;20556;-87
2022/04/29 07:13:43;;;;;;;19.30;13.17;;;14.00;99.90;;;;;;5095091;28;20411;-87
2022/04/29 07:16:10;;;;;;;21.80;14.67;;;14.00;99.90;;;;;;5091214;28;20533;-85
2022/04/29 07:18:37;;;;;;;23.10;13.07;;;13.90;99.90;;;;;;5090941;28;20450;-86
2022/04/29 07:21:05;;;;;;;18.27;14.10;;;13.90;99.90;;;;;;5086755;28;20501;-86
2022/04/29 07:23:32;;;;;;;18.40;14.07;;;13.80;99.90;;;;;;5081778;28;20439;-86
2022/04/29 07:26:01;;;;;;;15.13;13.27;;;13.80;99.90;;;;;;5082306;28;20538;-86
2022/04/29 07:28:30;;;;;;;14.00;12.30;;;13.80;99.90;;;;;;5087496;28;20524;-85
2022/04/29 07:30:57;;;;;;;16.83;11.87;;;13.70;99.90;;;;;;5085614;28;20426;-86
2022/04/29 07:33:27;;;;;;;19.33;13.33;;;13.80;99.90;;;;;;5086272;28;20498;-86
2022/04/29 07:44:11;;;;;;;18.77;11.47;;;14.10;99.90;;;;;;5092548;28;20457;-85
2022/04/29 07:46:39;;;;;;;16.67;12.17;;;14.30;99.90;;;;;;5087364;28;20490;-86
2022/04/29 07:49:08;;;;;;;17.30;12.20;;;14.20;99.90;;;;;;5085863;28;20479;-87
2022/04/29 07:51:36;;;;;;;13.97;11.50;;;14.40;99.90;;;;;;5085078;28;20476;-86
2022/04/29 07:54:04;;;;;;;18.63;12.40;;;14.50;99.90;;;;;;5084648;28;20459;-86
2022/04/29 07:56:31;;;;;;;17.47;10.23;;;14.60;99.90;;;;;;5085055;28;20477;-86
2022/04/29 07:58:58;;;;;;;18.90;11.40;;;14.80;99.90;;;;;;5084821;28;20884;-86
2022/04/29 08:01:27;;;;;;;17.07;10.40;;;14.80;99.90;;;;;;5089218;28;20440;-88
2022/04/29 08:03:54;;;;;;;15.37;11.87;;;14.80;99.90;;;;;;5099163;28;20462;-90
2022/04/29 08:06:23;;;;;;;13.80;10.43;;;14.80;99.90;;;;;;5099202;28;20403;-86
2022/04/29 08:08:50;;;;;;;16.03;12.00;;;14.80;99.90;;;;;;5092833;28;20478;-87
2022/04/29 08:11:18;;;;;;;15.33;11.67;;;14.80;99.70;;;;;;5091720;28;20446;-86
2022/04/29 08:13:47;;;;;;;15.83;11.20;;;14.80;99.90;;;;;;5093979;28;20434;-85
2022/04/29 08:16:15;;;;;;;15.07;11.70;;;14.80;99.90;;;;;;5093328;28;20438;-87
2022/04/29 08:18:48;;;;;;;14.43;11.30;;;14.70;99.90;;;;;;5093481;28;20411;-85
2022/04/29 08:21:15;;;;;;;15.43;11.60;;;14.70;99.90;;;;;;5092601;28;21043;-85
2022/04/29 08:23:45;;;;;;;15.57;11.23;;;14.70;99.90;;;;;;5089085;28;20463;-87
2022/04/29 08:26:12;;;;;;;14.13;10.70;;;14.60;99.90;;;;;;5090170;28;20450;-86
2022/04/29 08:28:41;;;;;;;15.33;12.50;;;14.60;99.90;;;;;;5090465;28;20531;-86
2022/04/29 08:31:12;;;;;;;20.37;10.77;;;14.70;99.90;;;;;;5090805;28;20452;-86
2022/04/29 08:33:55;;;;;;;17.20;12.00;;;14.80;99.60;;;;;;5091296;28;20547;-86
2022/04/29 08:36:22;;;;;;;19.77;12.40;;;15.00;98.70;;;;;;5091251;28;20456;-86
2022/04/29 08:38:52;;;;;;;14.60;11.43;;;15.10;98.40;;;;;;5090888;28;20419;-86
2022/04/29 08:41:23;;;;;;;13.67;8.30;;;15.30;97.90;;;;;;5093337;28;20513;-86
2022/04/29 08:43:50;;;;;;;10.57;7.70;;;15.40;94.50;;;;;;5094910;28;20446;-87
2022/04/29 08:46:22;;;;;;;12.57;9.30;;;15.60;93.80;;;;;;5090943;28;20456;-87
2022/04/29 08:48:51;;;;;;;12.30;8.43;;;15.80;93.10;;;;;;5088235;28;20497;-86
2022/04/29 08:51:20;;;;;;;14.13;9.50;;;15.90;92.20;;;;;;5090681;28;20460;-86
2022/04/29 08:53:48;;;;;;;12.13;8.37;;;15.90;91.80;;;;;;5089425;28;20409;-86
2022/04/29 08:59:04;;;;;;;14.27;8.53;;;16.30;92.10;;;;;;5086746;28;20416;-86
2022/04/29 09:01:32;;;;;;;12.30;8.30;;;16.50;92.20;;;;;;5088223;28;20473;-85
2022/04/29 09:04:06;;;;;;;12.43;9.17;;;16.60;91.60;;;;;;5087786;28;20429;-86
2022/04/29 09:06:47;;;;;;;10.57;8.10;;;16.70;91.00;;;;;;5083819;28;20407;-86
2022/04/29 09:09:14;;;;;;;12.83;8.40;;;16.70;91.10;;;;;;5085030;28;20834;-86
2022/04/29 09:11:41;;;;;;;12.00;8.70;;;16.80;91.00;;;;;;5083150;28;20450;-86
2022/04/29 09:14:21;;;;;;;12.83;8.70;;;16.90;91.00;;;;;;5082917;28;20450;-86
2022/04/29 09:16:49;;;;;;;16.03;9.53;;;17.00;91.00;;;;;;5083815;28;20481;-86
2022/04/29 09:19:35;;;;;;;12.67;8.90;;;17.00;91.20;;;;;;5082615;28;20499;-86
2022/04/29 09:22:07;;;;;;;12.70;8.33;;;17.40;90.60;;;;;;5092348;28;20471;-85
2022/04/29 09:24:34;;;;;;;11.33;7.73;;;17.70;87.80;;;;;;5086057;28;20422;-86
2022/04/29 09:27:02;;;;;;;8.27;6.20;;;17.90;85.20;;;;;;5082340;28;20447;-86
2022/04/29 09:29:33;;;;;;;8.53;6.77;;;18.10;77.70;;;;;;5082345;28;20438;-86
2022/04/29 09:32:02;;;;;;;8.20;6.80;;;18.20;76.50;;;;;;5083025;28;20538;-87
2022/04/29 09:48:01;;;;;;;23.70;9.30;;;18.30;73.20;;;;;;6120384;22;1301421;-86
2022/04/29 09:50:46;;;;;;;11.40;7.87;;;18.30;78.50;;;;;;6204772;23;20171;-86
2022/04/29 09:53:18;;;;;;;9.70;6.20;;;18.40;77.20;;;;;;6172489;23;20480;-85
2022/04/29 09:56:05;;;;;;;9.37;6.03;;;18.60;76.00;;;;;;6171009;23;20519;-85
2022/04/29 09:58:33;;;;;;;13.43;7.60;;;18.40;76.10;;;;;;6170784;23;20403;-83
2022/04/29 10:01:01;;;;;;;17.00;6.33;;;18.40;77.00;;;;;;6170825;23;20369;-85
2022/04/29 10:03:38;;;;;;;9.10;7.13;;;18.50;76.10;;;;;;6173695;23;20460;-85
2022/04/29 10:09:15;;;;;;;10.13;6.53;;;18.80;75.30;;;;;;6011244;24;20412;-87
2022/04/29 10:11:44;;;;;;;7.50;6.13;;;18.70;75.10;;;;;;6088970;23;20391;-85
2022/04/29 10:14:15;;;;;;;8.13;6.27;;;18.70;73.20;;;;;;6176186;23;20441;-86
2022/04/29 10:21:15;;;;;;;8.37;6.87;;;18.50;73.20;;;;;;6174863;23;20447;-86
2022/04/29 10:22:33;;;;;;;7.30;4.80;;;18.50;69.90;;;;;;6171781;23;20526;-86
2022/04/29 10:25:04;;;;;;;8.57;5.07;;;18.70;67.80;;;;;;6172634;23;20806;-85
2022/04/29 10:27:33;;;;;;;8.97;5.97;;;18.70;65.60;;;;;;6171695;23;20375;-84
2022/04/29 10:30:03;;;;;;;6.23;4.73;;;18.80;63.70;;;;;;6171188;23;20399;-85
2022/04/29 10:32:30;;;;;;;8.43;5.37;;;18.80;61.00;;;;;;6172452;23;20457;-86
2022/04/29 10:34:59;;;;;;;5.80;4.50;;;18.80;61.10;;;;;;6171890;23;20521;-86
2022/04/29 10:37:37;;;;;;;6.83;4.63;;;18.80;60.60;;;;;;6171255;23;20437;-85
2022/04/29 10:40:11;;;;;;;7.10;4.90;;;18.70;60.30;;;;;;6171929;23;20399;-85
2022/04/29 10:43:06;;;;;;;8.30;5.27;;;18.80;59.90;;;;;;6174549;23;20460;-86
2022/04/29 10:45:57;;;;;;;6.33;4.40;;;18.80;59.90;;;;;;6175426;23;20419;-87
2022/04/29 10:48:31;;;;;;;7.40;4.73;;;19.00;59.70;;;;;;6179378;23;20486;-86
2022/04/29 10:51:18;;;;;;;6.23;4.50;;;19.10;58.70;;;;;;6168864;23;20409;-86
2022/04/29 10:53:48;;;;;;;7.07;4.80;;;19.00;57.80;;;;;;6169485;23;20518;-87
2022/04/29 10:56:38;;;;;;;5.50;4.13;;;19.10;57.80;;;;;;6169176;23;20770;-86
2022/04/29 10:59:18;;;;;;;6.33;5.03;;;19.20;57.50;;;;;;6175703;23;20443;-86
2022/04/29 11:01:53;;;;;;;6.87;4.80;;;19.30;58.10;;;;;;6175852;23;20419;-86
2022/04/29 11:04:42;;;;;;;5.00;4.50;;;19.60;57.70;;;;;;6175018;23;20487;-87
2022/04/29 11:07:37;;;;;;;7.83;4.63;;;19.50;56.10;;;;;;6173672;23;20429;-87
2022/04/29 11:13:35;;;;;;;;;;;;;;;;;;;;;
2022/04/29 11:16:21;;;;;;;8.23;5.53;;;19.80;56.50;;;;;;6200180;23;20438;-89
2022/04/29 11:24:50;;;;;;;11.27;5.13;;;19.90;55.20;;;;;;6199553;23;20386;-89
2022/04/29 11:27:36;;;;;;;7.90;4.77;;;20.10;55.40;;;;;;6195613;23;20402;-88
2022/04/29 11:30:20;;;;;;;7.60;4.90;;;20.20;54.70;;;;;;6194782;23;20437;-89
2022/04/29 11:36:15;;;;;;;7.10;5.30;;;20.40;55.30;;;;;;6190895;23;20428;-89
2022/04/29 11:39:04;;;;;;;5.33;3.90;;;20.30;53.90;;;;;;6210609;23;20407;-89
2022/04/29 11:44:45;;;;;;;8.90;5.47;;;20.30;54.00;;;;;;6198008;23;20406;-91
2022/04/29 11:47:58;;;;;;;6.53;5.10;;;20.20;54.30;;;;;;6193424;23;20477;-89
2022/04/29 11:51:02;;;;;;;6.27;4.40;;;20.30;53.20;;;;;;6191143;23;20412;-90
2022/04/29 11:54:03;;;;;;;9.73;4.73;;;20.20;53.50;;;;;;6190458;23;20392;-90
2022/04/29 11:56:36;;;;;;;10.70;6.60;;;20.50;53.30;;;;;;6192455;23;20951;-89
2022/04/29 11:59:33;;;;;;;5.80;4.53;;;20.50;53.20;;;;;;6190050;23;20763;-89
2022/04/29 12:02:22;;;;;;;6.10;5.10;;;20.70;53.00;;;;;;6192069;23;20418;-89
2022/04/29 12:04:57;;;;;;;7.03;4.60;;;20.40;53.00;;;;;;6193400;23;20439;-90
2022/04/29 12:07:30;;;;;;;5.57;4.90;;;20.30;52.10;;;;;;6194749;23;20416;-89
2022/04/29 12:10:00;;;;;;;5.67;4.93;;;20.10;52.70;;;;;;6209689;23;20429;-89
2022/04/29 12:12:38;;;;;;;7.87;5.07;;;20.30;53.10;;;;;;6208994;23;20397;-89
2022/04/29 12:15:19;;;;;;;7.50;5.20;;;20.10;52.60;;;;;;6196715;23;20716;-89
2022/04/29 12:17:50;;;;;;;7.07;5.50;;;20.10;53.10;;;;;;6197585;23;20485;-90
2022/04/29 12:20:46;;;;;;;6.17;4.93;;;19.90;53.20;;;;;;6205068;23;20435;-90
2022/04/29 12:23:19;;;;;;;6.13;5.53;;;19.90;53.60;;;;;;6193556;23;20406;-89
2022/04/29 12:25:55;;;;;;;5.07;4.10;;;20.00;54.10;;;;;;6192785;23;20411;-89
2022/04/29 12:28:26;;;;;;;7.13;5.40;;;20.00;53.20;;;;;;6200745;23;20371;-89
2022/04/29 12:37:19;;;;;;;6.83;4.83;;;20.00;52.00;;;;;;6210842;23;20421;-89
2022/04/29 12:39:50;;;;;;;6.43;4.23;;;19.90;52.70;;;;;;6199100;23;20494;-90
2022/04/29 12:42:29;;;;;;;6.27;4.83;;;20.00;52.70;;;;;;6191978;23;20469;-89
2022/04/29 12:45:08;;;;;;;6.77;5.70;;;20.20;52.00;;;;;;6198975;23;20417;-89
2022/04/29 12:47:41;;;;;;;7.47;5.63;;;20.40;51.90;;;;;;6192727;23;20417;-89
2022/04/29 12:50:34;;;;;;;6.00;4.43;;;20.50;51.40;;;;;;6193201;23;20462;-89
2022/04/29 12:53:05;;;;;;;6.33;4.70;;;20.60;51.30;;;;;;6190764;23;20386;-90
2022/04/29 12:55:36;;;;;;;6.50;5.40;;;20.50;51.50;;;;;;6192061;23;20912;-89
2022/04/29 12:58:08;;;;;;;7.57;5.00;;;20.30;51.40;;;;;;6190923;23;20525;-90
2022/04/29 13:00:40;;;;;;;6.27;5.00;;;20.40;51.50;;;;;;6194246;23;20448;-89
2022/04/29 13:03:17;;;;;;;6.43;5.03;;;20.40;50.80;;;;;;6193184;23;20508;-89
2022/04/29 13:05:45;;;;;;;8.33;6.00;;;20.30;50.80;;;;;;6191953;23;20378;-90
2022/04/29 13:08:12;;;;;;;7.60;6.47;;;20.30;51.20;;;;;;6193940;23;20412;-89
2022/04/29 13:10:52;;;;;;;7.07;5.30;;;20.40;51.40;;;;;;6191559;23;20445;-88
2022/04/29 13:13:35;;;;;;;6.20;5.27;;;20.30;51.20;;;;;;6193267;23;20417;-89
2022/04/29 13:16:13;;;;;;;6.93;4.73;;;20.20;51.40;;;;;;6201368;23;20410;-89
2022/04/29 13:18:53;;;;;;;6.97;5.10;;;20.40;52.10;;;;;;6201985;23;20400;-90
2022/04/29 13:21:39;;;;;;;5.83;4.70;;;20.40;51.20;;;;;;6177336;23;20505;-90
2022/04/29 13:24:21;;;;;;;8.20;4.50;;;20.60;51.70;;;;;;6160318;23;20414;-88
2022/04/29 13:26:52;;;;;;;8.20;4.53;;;20.50;52.30;;;;;;6165651;23;20411;-89
2022/04/29 13:30:00;;;;;;;7.30;5.43;;;20.60;51.30;;;;;;6162408;23;20446;-90
2022/04/29 13:32:28;;;;;;;6.90;5.20;;;20.80;51.40;;;;;;6158534;23;20411;-90
2022/04/29 13:35:21;;;;;;;6.90;4.40;;;20.90;51.90;;;;;;6164067;23;20467;-89
2022/04/29 13:51:25;;;;;;;7.03;5.60;;;21.20;50.70;;;;;;4818099;27;8426235;-90
2022/04/29 13:54:07;;;;;;;6.40;4.90;;;20.80;51.00;;;;;;5102175;28;20204;-89
2022/04/29 13:57:11;;;;;;;7.13;5.43;;;20.70;50.70;;;;;;5105423;28;20478;-90
2022/04/29 14:05:21;;;;;;;7.67;5.33;;;20.70;51.50;;;;;;5066531;28;20443;-90
2022/04/29 14:07:56;;;;;;;7.00;5.67;;;20.70;51.50;;;;;;5074169;28;20452;-90
2022/04/29 14:10:33;;;;;;;8.47;5.50;;;20.80;51.20;;;;;;5075424;28;20495;-90
2022/04/29 14:18:57;;;;;;;6.20;5.60;;;21.40;50.60;;;;;;5083384;28;20427;-90
2022/04/29 14:21:39;;;;;;;7.70;5.20;;;21.50;50.90;;;;;;5082974;28;20484;-90
2022/04/29 14:24:59;;;;;;;7.83;4.87;;;21.30;50.60;;;;;;5075857;28;20455;-90
2022/04/29 14:28:13;;;;;;;7.27;5.67;;;21.00;50.60;;;;;;5074406;28;20527;-91
2022/04/29 14:34:27;;;;;;;;;;;;;;;;;;;;;
2022/04/29 14:37:12;;;;;;;6.33;5.57;;;21.00;51.70;;;;;;5044488;28;20442;-90
2022/04/29 14:39:55;;;;;;;6.30;5.10;;;21.10;51.50;;;;;;5073581;28;20577;-90
2022/04/29 14:42:43;;;;;;;10.47;5.57;;;21.20;51.70;;;;;;5074491;28;20451;-91
2022/04/29 14:45:30;;;;;;;7.70;5.83;;;21.20;51.60;;;;;;5076226;28;20543;-91
2022/04/29 14:53:48;;;;;;;6.70;5.57;;;21.40;51.60;;;;;;5068216;28;20469;-90
2022/04/29 14:56:22;;;;;;;7.30;4.67;;;21.50;51.50;;;;;;5061568;28;20502;-89
2022/04/29 14:59:43;;;;;;;;;;;;;;;;;;;;;